createdAt,value
2023-08-05T00:01:12.762Z,12.27
2023-08-05T00:03:42.374Z,9.18
2023-08-05T00:06:11.418Z,8.63
2023-08-05T00:08:39.080Z,7.50
2023-08-05T00:11:06.481Z,8.07
2023-08-05T00:13:35.916Z,7.90
2023-08-05T00:16:03.894Z,9.15
2023-08-05T00:18:31.593Z,10.30
2023-08-05T00:20:58.831Z,8.05
2023-08-05T00:23:26.791Z,9.45
2023-08-05T00:25:54.073Z,9.18
2023-08-05T00:28:21.755Z,10.05
2023-08-05T00:30:49.156Z,10.95
2023-08-05T00:33:16.783Z,8.13
2023-08-05T00:35:44.141Z,9.77
2023-08-05T00:38:12.067Z,9.35
2023-08-05T00:40:39.494Z,13.27
2023-08-05T00:43:07.219Z,11.95
2023-08-05T00:45:34.642Z,9.80
2023-08-05T00:48:02.915Z,8.25
2023-08-05T00:50:30.940Z,6.75
2023-08-05T00:52:59.179Z,10.80
2023-08-05T00:55:26.379Z,10.77
2023-08-05T00:57:54.050Z,11.80
2023-08-05T01:00:21.632Z,9.50
2023-08-05T01:02:49.423Z,9.73
2023-08-05T01:05:17.184Z,11.40
2023-08-05T01:07:45.619Z,8.45
2023-08-05T01:10:13.226Z,9.13
2023-08-05T01:12:43.254Z,9.20
2023-08-05T01:15:10.871Z,11.25
2023-08-05T01:17:39.250Z,12.32
2023-08-05T01:20:09.397Z,12.45
2023-08-05T01:22:52.987Z,8.60
2023-08-05T01:28:02.592Z,10.38
2023-08-05T01:30:31.421Z,8.73
2023-08-05T01:33:01.179Z,10.60
2023-08-05T01:35:28.888Z,7.95
2023-08-05T01:37:56.750Z,15.95
2023-08-05T01:40:29.535Z,9.40
2023-08-05T01:42:58.530Z,10.07
2023-08-05T01:45:26.259Z,10.10
2023-08-05T01:47:54.309Z,11.95
2023-08-05T01:50:21.690Z,9.48
2023-08-05T01:52:49.350Z,11.32
2023-08-05T01:55:16.740Z,10.85
2023-08-05T01:57:44.622Z,10.05
2023-08-05T02:00:12.333Z,10.73
2023-08-05T02:02:43.267Z,11.80
2023-08-05T02:05:11.132Z,10.50
2023-08-05T02:07:39.152Z,13.38
2023-08-05T02:10:06.977Z,10.85
2023-08-05T02:12:34.697Z,7.65
2023-08-05T02:15:02.207Z,16.00
2023-08-05T02:17:30.083Z,11.63
2023-08-05T02:19:57.526Z,12.05
2023-08-05T02:22:26.036Z,7.32
2023-08-05T02:24:53.485Z,7.22
2023-08-05T02:27:21.292Z,12.65
2023-08-05T02:29:48.514Z,12.73
2023-08-05T02:32:18.350Z,12.15
2023-08-05T02:34:45.727Z,15.43
2023-08-05T02:37:13.591Z,9.07
2023-08-05T02:39:42.246Z,16.70
2023-08-05T02:42:10.108Z,14.07
2023-08-05T02:44:37.737Z,10.10
2023-08-05T02:47:05.655Z,12.98
2023-08-05T02:49:33.851Z,11.55
2023-08-05T02:52:01.544Z,12.35
2023-08-05T02:54:29.164Z,11.38
2023-08-05T02:56:56.818Z,9.93
2023-08-05T02:59:24.196Z,12.68
2023-08-05T03:01:52.004Z,12.82
2023-08-05T03:04:19.953Z,12.30
2023-08-05T03:06:48.567Z,11.40
2023-08-05T03:09:16.506Z,11.73
2023-08-05T03:11:44.218Z,11.23
2023-08-05T03:14:12.588Z,12.15
2023-08-05T03:16:41.311Z,11.52
2023-08-05T03:19:16.055Z,12.18
2023-08-05T03:21:44.315Z,11.10
2023-08-05T03:24:12.316Z,11.20
2023-08-05T03:26:43.151Z,11.15
2023-08-05T03:29:13.141Z,9.50
2023-08-05T03:31:40.855Z,11.20
2023-08-05T03:34:09.079Z,10.30
2023-08-05T03:36:37.810Z,10.05
2023-08-05T03:39:06.494Z,11.63
2023-08-05T03:41:35.402Z,10.82
2023-08-05T03:44:03.241Z,8.43
2023-08-05T03:46:30.987Z,9.98
2023-08-05T03:48:58.478Z,11.07
2023-08-05T03:51:26.307Z,10.20
2023-08-05T03:53:53.643Z,13.00
2023-08-05T03:56:23.487Z,7.03
2023-08-05T03:58:53.111Z,9.50
2023-08-05T04:01:23.388Z,8.57
2023-08-05T04:03:51.603Z,10.32
2023-08-05T04:06:21.925Z,12.88
2023-08-05T04:08:52.261Z,10.93
2023-08-05T04:11:20.090Z,7.78
2023-08-05T04:13:47.383Z,7.65
2023-08-05T04:16:17.916Z,10.15
2023-08-05T04:18:47.723Z,7.03
2023-08-05T04:21:16.315Z,9.93
2023-08-05T04:23:43.742Z,6.55
2023-08-05T04:26:11.542Z,6.63
2023-08-05T04:28:38.939Z,6.30
2023-08-05T04:31:06.775Z,7.18
2023-08-05T04:33:34.208Z,6.10
2023-08-05T04:36:01.974Z,8.52
2023-08-05T04:38:29.390Z,6.32
2023-08-05T04:40:57.120Z,4.78
2023-08-05T04:43:24.435Z,8.40
2023-08-05T04:45:52.254Z,9.15
2023-08-05T04:48:19.700Z,5.10
2023-08-05T04:50:47.452Z,5.90
2023-08-05T04:53:16.602Z,5.95
2023-08-05T04:55:44.299Z,4.85
2023-08-05T04:58:12.557Z,5.45
2023-08-05T05:00:40.519Z,8.30
2023-08-05T05:03:09.058Z,4.10
2023-08-05T05:05:37.181Z,9.20
2023-08-05T05:08:04.660Z,5.35
2023-08-05T05:10:32.423Z,5.22
2023-08-05T05:13:00.070Z,7.88
2023-08-05T05:15:27.856Z,4.78
2023-08-05T05:17:55.164Z,6.70
2023-08-05T05:20:22.854Z,9.05
2023-08-05T05:22:50.746Z,7.28
2023-08-05T05:25:18.405Z,9.43
2023-08-05T05:27:45.789Z,5.13
2023-08-05T05:30:13.523Z,5.07
2023-08-05T05:32:40.877Z,6.15
2023-08-05T05:35:09.026Z,5.18
2023-08-05T05:37:36.394Z,5.78
2023-08-05T05:40:04.602Z,8.07
2023-08-05T05:42:32.328Z,6.43
2023-08-05T05:45:01.662Z,6.65
2023-08-05T05:47:29.592Z,4.60
2023-08-05T05:49:57.358Z,7.75
2023-08-05T05:52:24.780Z,4.47
2023-08-05T05:54:52.469Z,4.97
2023-08-05T05:57:20.907Z,8.38
2023-08-05T05:59:48.795Z,7.20
2023-08-05T06:02:16.132Z,5.75
2023-08-05T06:04:45.768Z,11.68
2023-08-05T06:07:13.258Z,6.72
2023-08-05T06:09:42.420Z,6.88
2023-08-05T06:12:11.983Z,7.97
2023-08-05T06:14:39.808Z,6.78
2023-08-05T06:17:07.761Z,5.22
2023-08-05T06:19:35.445Z,5.65
2023-08-05T06:22:02.913Z,3.47
2023-08-05T06:24:30.535Z,6.60
2023-08-05T06:26:57.907Z,5.53
2023-08-05T06:29:25.598Z,4.30
2023-08-05T06:31:54.869Z,4.88
2023-08-05T06:34:23.517Z,5.85
2023-08-05T06:36:50.951Z,5.38
2023-08-05T06:39:18.455Z,6.35
2023-08-05T06:41:45.762Z,8.15
2023-08-05T06:44:13.466Z,6.80
2023-08-05T06:46:40.921Z,12.50
2023-08-05T06:49:10.788Z,7.63
2023-08-05T06:51:38.820Z,6.95
2023-08-05T06:54:06.514Z,13.93
2023-08-05T06:56:33.850Z,5.15
2023-08-05T06:59:01.639Z,8.30
2023-08-05T07:01:29.242Z,6.15
2023-08-05T07:03:57.027Z,5.97
2023-08-05T07:06:24.476Z,6.30
2023-08-05T07:08:52.917Z,6.47
2023-08-05T07:11:20.229Z,5.43
2023-08-05T07:13:49.730Z,7.68
2023-08-05T07:16:18.678Z,7.57
2023-08-05T07:18:46.308Z,6.68
2023-08-05T07:21:14.079Z,7.78
2023-08-05T07:23:42.010Z,6.88
2023-08-05T07:26:09.401Z,5.55
2023-08-05T07:28:37.272Z,6.78
2023-08-05T07:31:08.444Z,6.63
2023-08-05T07:33:36.087Z,5.10
2023-08-05T07:36:10.981Z,6.50
2023-08-05T07:38:44.971Z,5.50
2023-08-05T07:41:13.937Z,11.25
2023-08-05T07:43:43.507Z,7.65
2023-08-05T07:46:14.704Z,7.50
2023-08-05T07:48:43.669Z,6.43
2023-08-05T07:51:11.052Z,9.77
2023-08-05T07:53:38.797Z,5.57
2023-08-05T07:56:13.138Z,5.28
2023-08-05T07:58:43.800Z,6.60
2023-08-05T08:01:13.658Z,7.47
2023-08-05T08:03:44.542Z,5.15
2023-08-05T08:06:15.855Z,7.28
2023-08-05T08:08:44.355Z,6.95
2023-08-05T08:11:12.190Z,6.65
2023-08-05T08:13:40.499Z,9.32
2023-08-05T08:16:08.059Z,6.95
2023-08-05T08:18:35.783Z,8.25
2023-08-05T08:21:05.259Z,9.30
2023-08-05T08:23:33.092Z,7.72
2023-08-05T08:26:01.010Z,8.77
2023-08-05T08:28:29.048Z,12.35
2023-08-05T08:30:57.787Z,7.85
2023-08-05T08:33:27.836Z,8.73
2023-08-05T08:35:55.465Z,7.57
2023-08-05T08:38:26.826Z,7.25
2023-08-05T08:40:58.919Z,11.50
2023-08-05T08:43:28.301Z,10.90
2023-08-05T08:45:56.668Z,9.25
2023-08-05T08:48:25.333Z,11.02
2023-08-05T08:50:54.183Z,11.90
2023-08-05T08:53:23.136Z,12.45
2023-08-05T08:55:50.596Z,10.15
2023-08-05T08:58:18.247Z,11.15
2023-08-05T09:00:46.554Z,10.15
2023-08-05T09:03:14.739Z,8.68
2023-08-05T09:05:46.700Z,9.77
2023-08-05T09:08:14.796Z,10.20
2023-08-05T09:10:44.993Z,13.82
2023-08-05T09:13:13.179Z,9.45
2023-08-05T09:15:40.827Z,10.85
2023-08-05T09:18:09.914Z,12.45
2023-08-05T09:20:38.727Z,10.93
2023-08-05T09:23:11.998Z,10.30
2023-08-05T09:28:08.219Z,16.40
2023-08-05T09:30:36.480Z,16.15
2023-08-05T09:33:04.676Z,12.70
2023-08-05T09:35:32.340Z,14.52
2023-08-05T09:38:02.115Z,14.00
2023-08-05T09:40:33.497Z,12.30
2023-08-05T09:43:03.949Z,11.45
2023-08-05T09:45:35.046Z,12.15
2023-08-05T09:48:10.258Z,13.60
2023-08-05T09:50:39.027Z,10.25
2023-08-05T09:53:10.692Z,14.90
2023-08-05T09:55:39.726Z,13.57
2023-08-05T09:58:11.353Z,12.40
2023-08-05T10:00:42.212Z,11.88
2023-08-05T10:03:15.484Z,11.60
2023-08-05T10:05:45.943Z,11.75
2023-08-05T10:08:20.983Z,9.63
2023-08-05T10:10:48.602Z,9.70
2023-08-05T10:13:19.213Z,10.90
2023-08-05T10:15:52.224Z,10.93
2023-08-05T10:18:20.312Z,10.20
2023-08-05T10:20:54.919Z,9.90
2023-08-05T10:23:26.411Z,12.18
2023-08-05T10:26:00.640Z,12.15
2023-08-05T10:28:40.761Z,9.77
2023-08-05T10:31:24.712Z,13.18
2023-08-05T10:34:18.124Z,12.88
2023-08-05T10:36:49.773Z,12.68
2023-08-05T10:39:42.206Z,9.85
2023-08-05T10:42:31.394Z,8.55
2023-08-05T10:45:00.162Z,11.65
2023-08-05T10:47:28.322Z,9.60
2023-08-05T10:50:00.963Z,8.15
2023-08-05T10:52:29.681Z,5.60
2023-08-05T10:54:58.571Z,7.20
2023-08-05T10:57:44.127Z,5.55
2023-08-05T11:00:21.613Z,8.30
2023-08-05T11:02:50.938Z,5.68
2023-08-05T11:05:19.184Z,6.35
2023-08-05T11:07:47.298Z,5.70
2023-08-05T11:10:15.093Z,6.38
2023-08-05T11:12:42.432Z,6.53
2023-08-05T11:15:10.846Z,7.82
2023-08-05T11:17:57.326Z,9.10
2023-08-05T11:20:32.776Z,7.47
2023-08-05T11:23:00.925Z,5.90
2023-08-05T11:25:29.909Z,7.32
2023-08-05T11:27:57.393Z,8.27
2023-08-05T11:30:24.849Z,11.07
2023-08-05T11:32:59.709Z,5.95
2023-08-05T11:35:27.956Z,6.15
2023-08-05T11:37:55.807Z,6.68
2023-08-05T11:40:23.751Z,8.30
2023-08-05T11:42:51.702Z,5.95
2023-08-05T11:45:19.909Z,7.57
2023-08-05T11:47:47.365Z,10.23
2023-08-05T11:50:15.534Z,8.68
2023-08-05T11:52:42.922Z,7.65
2023-08-05T11:55:11.199Z,7.75
2023-08-05T11:57:38.931Z,6.60
2023-08-05T12:00:10.514Z,10.38
2023-08-05T12:02:39.266Z,7.97
2023-08-05T12:05:11.626Z,6.65
2023-08-05T12:07:43.536Z,8.77
2023-08-05T12:10:17.347Z,7.38
2023-08-05T12:12:46.271Z,6.43
2023-08-05T12:15:29.301Z,6.00
2023-08-05T12:17:58.706Z,8.15
2023-08-05T12:20:29.007Z,10.75
2023-08-05T12:22:57.994Z,7.30
2023-08-05T12:25:27.299Z,4.80
2023-08-05T12:27:55.055Z,6.38
2023-08-05T12:30:23.221Z,5.93
2023-08-05T12:32:51.109Z,6.55
2023-08-05T12:35:18.937Z,8.65
2023-08-05T12:37:46.381Z,7.32
2023-08-05T12:40:14.762Z,9.13
2023-08-05T12:42:43.157Z,8.15
2023-08-05T12:45:11.136Z,7.10
2023-08-05T12:47:40.205Z,5.75
2023-08-05T12:50:08.871Z,8.45
2023-08-05T12:52:36.554Z,5.32
2023-08-05T12:55:04.475Z,4.55
2023-08-05T12:57:33.609Z,4.35
2023-08-05T13:00:02.539Z,5.85
2023-08-05T13:02:30.391Z,4.32
2023-08-05T13:04:58.339Z,4.13
2023-08-05T13:07:26.035Z,6.18
2023-08-05T13:09:53.839Z,4.82
2023-08-05T13:12:21.141Z,3.35
2023-08-05T13:14:48.860Z,4.05
2023-08-05T13:17:16.185Z,4.25
2023-08-05T13:19:44.704Z,4.03
2023-08-05T13:22:12.082Z,4.82
2023-08-05T13:24:39.946Z,4.55
2023-08-05T13:27:07.377Z,6.20
2023-08-05T13:29:36.160Z,6.80
2023-08-05T13:32:03.490Z,7.13
2023-08-05T13:34:31.154Z,6.13
2023-08-05T13:36:58.681Z,4.57
2023-08-05T13:39:26.723Z,5.85
2023-08-05T13:41:58.941Z,7.18
2023-08-05T13:44:27.972Z,5.07
2023-08-05T13:46:55.831Z,5.95
2023-08-05T13:49:23.473Z,4.32
2023-08-05T13:51:52.832Z,5.70
2023-08-05T13:54:20.763Z,4.32
2023-08-05T13:56:48.243Z,9.57
2023-08-05T13:59:16.019Z,4.18
2023-08-05T14:01:46.486Z,4.30
2023-08-05T14:04:14.072Z,5.03
2023-08-05T14:06:41.550Z,3.13
2023-08-05T14:09:09.523Z,3.13
2023-08-05T14:11:37.458Z,4.85
2023-08-05T14:14:05.420Z,5.10
2023-08-05T14:16:33.007Z,3.28
2023-08-05T14:19:01.596Z,6.50
2023-08-05T14:21:29.175Z,7.05
2023-08-05T14:23:57.103Z,4.75
2023-08-05T14:26:24.853Z,5.53
2023-08-05T14:28:52.662Z,3.17
2023-08-05T14:31:20.099Z,3.58
2023-08-05T14:33:47.876Z,5.10
2023-08-05T14:36:15.617Z,7.72
2023-08-05T14:38:43.391Z,7.55
2023-08-05T14:41:17.146Z,8.05
2023-08-05T14:43:45.066Z,5.13
2023-08-05T14:46:12.842Z,5.85
2023-08-05T14:48:40.804Z,5.75
2023-08-05T14:51:08.300Z,6.30
2023-08-05T14:53:35.880Z,4.43
2023-08-05T14:56:03.382Z,4.57
2023-08-05T14:58:31.168Z,3.25
2023-08-05T15:01:04.947Z,4.68
2023-08-05T15:03:32.895Z,3.33
2023-08-05T15:06:00.391Z,4.72
2023-08-05T15:08:28.093Z,2.97
2023-08-05T15:11:01.894Z,4.72
2023-08-05T15:13:29.864Z,4.35
2023-08-05T15:15:57.269Z,3.95
2023-08-05T15:18:25.052Z,3.83
2023-08-05T15:20:53.005Z,3.85
2023-08-05T15:25:51.808Z,6.65
2023-08-05T15:28:19.879Z,8.05
2023-08-05T15:30:47.648Z,5.05
2023-08-05T15:33:16.689Z,5.72
2023-08-05T15:35:45.101Z,9.70
2023-08-05T15:38:12.735Z,7.53
2023-08-05T15:40:40.114Z,7.18
2023-08-05T15:43:07.860Z,6.40
2023-08-05T15:45:35.192Z,5.80
2023-08-05T15:48:02.887Z,8.40
2023-08-05T15:50:30.299Z,11.02
2023-08-05T15:52:57.883Z,6.25
2023-08-05T15:55:25.714Z,6.95
2023-08-05T15:57:53.710Z,9.75
2023-08-05T16:00:21.007Z,10.32
2023-08-05T16:02:50.256Z,10.63
2023-08-05T16:05:17.839Z,9.13
2023-08-05T16:07:45.679Z,9.70
2023-08-05T16:10:13.152Z,8.77
2023-08-05T16:12:41.150Z,8.63
2023-08-05T16:15:09.405Z,10.65
2023-08-05T16:17:37.094Z,10.45
2023-08-05T16:20:04.894Z,10.20
2023-08-05T16:22:32.603Z,10.07
2023-08-05T16:24:59.922Z,7.25
2023-08-05T16:27:27.658Z,11.07
2023-08-05T16:29:55.085Z,13.88
2023-08-05T16:32:23.202Z,9.82
2023-08-05T16:34:50.460Z,10.20
2023-08-05T16:37:18.214Z,9.63
2023-08-05T16:39:45.643Z,6.97
2023-08-05T16:42:13.310Z,10.50
2023-08-05T16:44:40.766Z,8.85
2023-08-05T16:47:08.860Z,11.57
2023-08-05T16:49:36.285Z,9.48
2023-08-05T16:52:04.267Z,9.65
2023-08-05T16:54:31.414Z,10.60
2023-08-05T16:56:59.122Z,7.82
2023-08-05T16:59:26.349Z,11.02
2023-08-05T17:01:54.172Z,11.68
2023-08-05T17:04:21.898Z,7.53
2023-08-05T17:06:49.679Z,6.82
2023-08-05T17:09:18.272Z,13.43
2023-08-05T17:11:46.003Z,10.27
2023-08-05T17:14:13.460Z,11.70
2023-08-05T17:16:41.130Z,14.52
2023-08-05T17:19:08.650Z,13.80
2023-08-05T17:21:36.384Z,7.07
2023-08-05T17:24:04.231Z,11.32
2023-08-05T17:26:31.999Z,12.90
2023-08-05T17:28:59.685Z,8.60
2023-08-05T17:31:27.462Z,9.38
2023-08-05T17:33:54.757Z,14.27
2023-08-05T17:36:23.023Z,14.82
2023-08-05T17:38:50.558Z,10.45
2023-08-05T17:41:18.026Z,11.13
2023-08-05T17:43:45.412Z,11.85
2023-08-05T17:46:13.537Z,11.98
2023-08-05T17:48:40.900Z,16.70
2023-08-05T17:51:08.627Z,13.88
2023-08-05T17:53:36.024Z,14.07
2023-08-05T17:56:04.155Z,19.83
2023-08-05T17:58:31.519Z,15.60
2023-08-05T18:00:59.261Z,14.18
2023-08-05T18:03:26.651Z,15.80
2023-08-05T18:06:04.435Z,15.93
2023-08-05T18:08:39.261Z,13.32
2023-08-05T18:11:07.020Z,13.25
2023-08-05T18:13:35.094Z,15.75
2023-08-05T18:16:03.676Z,12.98
2023-08-05T18:18:31.011Z,17.20
2023-08-05T18:20:58.711Z,14.82
2023-08-05T18:23:26.021Z,13.00
2023-08-05T18:25:55.217Z,15.80
2023-08-05T18:28:22.727Z,15.75
2023-08-05T18:30:54.149Z,15.18
2023-08-05T18:33:22.459Z,15.43
2023-08-05T18:35:50.389Z,14.32
2023-08-05T18:38:17.950Z,14.30
2023-08-05T18:40:45.631Z,14.13
2023-08-05T18:43:13.084Z,15.38
2023-08-05T18:45:41.586Z,14.25
2023-08-05T18:48:08.990Z,12.77
2023-08-05T18:50:37.271Z,18.75
2023-08-05T18:53:04.707Z,15.93
2023-08-05T18:55:32.341Z,12.77
2023-08-05T18:57:59.640Z,11.52
2023-08-05T19:00:27.205Z,15.07
2023-08-05T19:02:54.619Z,15.05
2023-08-05T19:05:22.745Z,16.02
2023-08-05T19:07:50.070Z,16.30
2023-08-05T19:10:17.999Z,14.00
2023-08-05T19:12:46.621Z,15.20
2023-08-05T19:15:14.300Z,20.58
2023-08-05T19:17:41.575Z,11.15
2023-08-05T19:20:09.769Z,12.27
2023-08-05T19:22:37.138Z,18.92
2023-08-05T19:25:05.436Z,15.88
2023-08-05T19:27:44.139Z,11.55
2023-08-05T19:30:22.270Z,12.80
2023-08-05T19:32:50.905Z,17.35
2023-08-05T19:35:19.765Z,15.73
2023-08-05T19:37:47.042Z,17.90
2023-08-05T19:40:14.847Z,16.67
2023-08-05T19:42:42.492Z,15.40
2023-08-05T19:45:10.319Z,16.77
2023-08-05T19:47:42.428Z,16.65
2023-08-05T19:50:10.605Z,20.10
2023-08-05T19:52:39.377Z,24.17
2023-08-05T19:55:07.442Z,17.90
2023-08-05T19:57:35.013Z,19.23
2023-08-05T20:00:04.693Z,20.98
2023-08-05T20:02:36.277Z,22.42
2023-08-05T20:05:05.845Z,21.13
2023-08-05T20:07:34.605Z,19.98
2023-08-05T20:10:02.341Z,23.77
2023-08-05T20:12:30.102Z,20.52
2023-08-05T20:14:58.008Z,22.10
2023-08-05T20:17:25.890Z,24.33
2023-08-05T20:19:55.070Z,19.48
2023-08-05T20:22:22.296Z,28.35
2023-08-05T20:25:00.447Z,22.15
2023-08-05T20:27:29.176Z,26.52
2023-08-05T20:29:57.518Z,27.88
2023-08-05T20:32:24.933Z,23.98
2023-08-05T20:34:56.473Z,26.73
2023-08-05T20:37:24.544Z,27.85
2023-08-05T20:39:55.444Z,23.55
2023-08-05T20:42:25.763Z,25.65
2023-08-05T20:44:53.438Z,29.63
2023-08-05T20:47:21.116Z,28.30
2023-08-05T20:49:49.495Z,27.45
2023-08-05T20:52:16.874Z,24.23
2023-08-05T20:54:44.416Z,23.88
2023-08-05T20:57:11.724Z,23.65
2023-08-05T20:59:39.542Z,25.00
2023-08-05T21:02:07.102Z,28.02
2023-08-05T21:04:35.450Z,32.20
2023-08-05T21:07:02.843Z,22.50
2023-08-05T21:09:30.618Z,24.17
2023-08-05T21:11:57.832Z,24.35
2023-08-05T21:14:25.581Z,23.02
2023-08-05T21:16:53.854Z,22.15
2023-08-05T21:19:21.587Z,23.65
2023-08-05T21:21:49.302Z,22.30
2023-08-05T21:24:17.108Z,28.42
2023-08-05T21:26:44.355Z,22.73
2023-08-05T21:29:12.020Z,26.25
2023-08-05T21:31:39.304Z,25.60
2023-08-05T21:34:08.168Z,30.23
2023-08-05T21:36:35.492Z,29.65
2023-08-05T21:39:04.203Z,24.73
2023-08-05T21:41:31.656Z,29.45
2023-08-05T21:43:59.231Z,28.90
2023-08-05T21:46:26.382Z,25.50
2023-08-05T21:48:54.096Z,27.85
2023-08-05T21:51:21.414Z,24.50
2023-08-05T21:53:49.132Z,27.58
2023-08-05T21:56:16.498Z,25.38
2023-08-05T21:58:44.104Z,27.08
2023-08-05T22:01:11.529Z,22.80
2023-08-05T22:03:39.463Z,26.38
2023-08-05T22:06:11.221Z,29.90
2023-08-05T22:08:40.344Z,28.85
2023-08-05T22:11:09.737Z,25.77
2023-08-05T22:13:37.960Z,33.35
2023-08-05T22:16:05.473Z,26.98
2023-08-05T22:18:33.324Z,29.90
2023-08-05T22:21:00.640Z,25.70
2023-08-05T22:23:28.341Z,27.60
2023-08-05T22:25:55.651Z,32.22
2023-08-05T22:28:23.368Z,28.92
2023-08-05T22:30:58.131Z,29.23
2023-08-05T22:33:25.839Z,29.10
2023-08-05T22:35:53.141Z,27.90
2023-08-05T22:38:20.880Z,32.88
2023-08-05T22:40:48.171Z,30.52
2023-08-05T22:43:15.787Z,31.77
2023-08-05T22:45:43.138Z,28.80
2023-08-05T22:48:10.941Z,27.67
2023-08-05T22:50:41.426Z,29.38
2023-08-05T22:53:09.167Z,31.17
2023-08-05T22:55:37.329Z,32.30
2023-08-05T22:58:05.121Z,34.85
2023-08-05T23:00:32.610Z,30.88
2023-08-05T23:03:00.581Z,31.02
2023-08-05T23:05:29.191Z,36.78
2023-08-05T23:07:56.900Z,30.30
2023-08-05T23:10:24.394Z,35.28
2023-08-05T23:12:52.021Z,36.38
2023-08-05T23:15:19.361Z,29.83
2023-08-05T23:17:47.045Z,33.80
2023-08-05T23:20:14.412Z,36.20
2023-08-05T23:22:43.996Z,35.65
2023-08-05T23:25:11.464Z,37.00
2023-08-05T23:27:38.972Z,35.83
2023-08-05T23:30:07.010Z,46.22
2023-08-05T23:32:34.783Z,41.90
2023-08-05T23:35:02.140Z,47.20
2023-08-05T23:37:30.138Z,54.20
2023-08-05T23:39:57.513Z,49.03
2023-08-05T23:42:25.145Z,47.67
2023-08-05T23:44:52.558Z,45.40
2023-08-05T23:47:20.241Z,53.38
2023-08-05T23:49:47.596Z,52.38
2023-08-05T23:52:15.221Z,47.03
2023-08-05T23:54:42.625Z,46.38
2023-08-05T23:57:10.298Z,47.63
2023-08-05T23:59:37.818Z,57.00
